sensor_id;sensor_type;location;lat;lon;timestamp;P1;durP1;ratioP1;P2;durP2;ratioP2
72573;SDS011;60603;52.548;13.420;2023-06-22T00:00:32;13.63;;;9.57;;
72573;SDS011;60603;52.548;13.420;2023-06-22T00:03:18;13.63;;;9.90;;
72573;SDS011;60603;52.548;13.420;2023-06-22T00:05:45;13.13;;;9.15;;
72573;SDS011;60603;52.548;13.420;2023-06-22T00:08:11;15.27;;;10.15;;
72573;SDS011;60603;52.548;13.420;2023-06-22T00:10:37;14.95;;;9.32;;
72573;SDS011;60603;52.548;13.420;2023-06-22T00:13:03;13.50;;;9.30;;
72573;SDS011;60603;52.548;13.420;2023-06-22T00:15:29;15.15;;;9.43;;
72573;SDS011;60603;52.548;13.420;2023-06-22T00:17:55;14.95;;;9.95;;
72573;SDS011;60603;52.548;13.420;2023-06-22T00:20:22;13.23;;;9.30;;
72573;SDS011;60603;52.548;13.420;2023-06-22T00:22:48;17.42;;;10.27;;
72573;SDS011;60603;52.548;13.420;2023-06-22T00:25:14;17.00;;;10.15;;
72573;SDS011;60603;52.548;13.420;2023-06-22T00:27:40;14.05;;;9.93;;
72573;SDS011;60603;52.548;13.420;2023-06-22T00:30:05;13.93;;;9.23;;
72573;SDS011;60603;52.548;13.420;2023-06-22T00:32:32;14.15;;;9.35;;
72573;SDS011;60603;52.548;13.420;2023-06-22T00:34:57;15.43;;;9.88;;
72573;SDS011;60603;52.548;13.420;2023-06-22T00:37:23;13.93;;;9.73;;
72573;SDS011;60603;52.548;13.420;2023-06-22T00:39:51;13.95;;;9.32;;
72573;SDS011;60603;52.548;13.420;2023-06-22T00:42:17;13.05;;;9.05;;
72573;SDS011;60603;52.548;13.420;2023-06-22T00:44:43;13.18;;;9.93;;
72573;SDS011;60603;52.548;13.420;2023-06-22T00:47:13;14.10;;;10.00;;
72573;SDS011;60603;52.548;13.420;2023-06-22T00:49:41;15.18;;;10.07;;
72573;SDS011;60603;52.548;13.420;2023-06-22T00:52:15;15.95;;;10.18;;
72573;SDS011;60603;52.548;13.420;2023-06-22T00:54:46;13.98;;;10.48;;
72573;SDS011;60603;52.548;13.420;2023-06-22T00:57:14;15.05;;;10.05;;
72573;SDS011;60603;52.548;13.420;2023-06-22T00:59:43;15.90;;;9.98;;
72573;SDS011;60603;52.548;13.420;2023-06-22T01:02:10;14.98;;;9.88;;
72573;SDS011;60603;52.548;13.420;2023-06-22T01:04:36;12.90;;;9.55;;
72573;SDS011;60603;52.548;13.420;2023-06-22T01:07:06;14.07;;;10.23;;
72573;SDS011;60603;52.548;13.420;2023-06-22T01:09:37;14.23;;;9.77;;
72573;SDS011;60603;52.548;13.420;2023-06-22T01:12:08;16.23;;;10.50;;
72573;SDS011;60603;52.548;13.420;2023-06-22T01:17:10;14.77;;;9.75;;
72573;SDS011;60603;52.548;13.420;2023-06-22T01:19:50;17.25;;;10.45;;
72573;SDS011;60603;52.548;13.420;2023-06-22T01:22:27;15.55;;;9.35;;
72573;SDS011;60603;52.548;13.420;2023-06-22T01:25:12;13.65;;;9.55;;
72573;SDS011;60603;52.548;13.420;2023-06-22T01:30:42;13.65;;;10.13;;
72573;SDS011;60603;52.548;13.420;2023-06-22T01:33:12;15.10;;;10.57;;
72573;SDS011;60603;52.548;13.420;2023-06-22T01:35:38;14.40;;;10.63;;
72573;SDS011;60603;52.548;13.420;2023-06-22T01:38:05;17.15;;;10.15;;
72573;SDS011;60603;52.548;13.420;2023-06-22T01:40:32;15.43;;;10.40;;
72573;SDS011;60603;52.548;13.420;2023-06-22T01:42:59;14.13;;;10.25;;
72573;SDS011;60603;52.548;13.420;2023-06-22T01:45:25;15.07;;;10.07;;
72573;SDS011;60603;52.548;13.420;2023-06-22T01:47:52;19.80;;;10.50;;
72573;SDS011;60603;52.548;13.420;2023-06-22T01:50:17;16.65;;;11.70;;
72573;SDS011;60603;52.548;13.420;2023-06-22T01:52:43;16.73;;;10.48;;
72573;SDS011;60603;52.548;13.420;2023-06-22T01:55:08;14.90;;;10.82;;
72573;SDS011;60603;52.548;13.420;2023-06-22T01:57:34;16.85;;;12.43;;
72573;SDS011;60603;52.548;13.420;2023-06-22T02:00:04;19.63;;;12.93;;
72573;SDS011;60603;52.548;13.420;2023-06-22T02:02:33;21.65;;;13.57;;
72573;SDS011;60603;52.548;13.420;2023-06-22T02:07:39;20.63;;;13.27;;
72573;SDS011;60603;52.548;13.420;2023-06-22T02:10:07;19.40;;;14.05;;
72573;SDS011;60603;52.548;13.420;2023-06-22T02:12:34;22.08;;;13.43;;
72573;SDS011;60603;52.548;13.420;2023-06-22T02:15:00;21.35;;;14.07;;
72573;SDS011;60603;52.548;13.420;2023-06-22T02:17:27;21.48;;;14.25;;
72573;SDS011;60603;52.548;13.420;2023-06-22T02:19:52;22.52;;;14.95;;
72573;SDS011;60603;52.548;13.420;2023-06-22T02:22:18;22.45;;;14.82;;
72573;SDS011;60603;52.548;13.420;2023-06-22T02:24:44;20.73;;;14.40;;
72573;SDS011;60603;52.548;13.420;2023-06-22T02:27:10;25.33;;;14.57;;
72573;SDS011;60603;52.548;13.420;2023-06-22T02:29:36;20.35;;;13.50;;
72573;SDS011;60603;52.548;13.420;2023-06-22T02:32:02;20.35;;;14.07;;
72573;SDS011;60603;52.548;13.420;2023-06-22T02:34:29;19.02;;;13.27;;
72573;SDS011;60603;52.548;13.420;2023-06-22T02:36:54;22.67;;;14.07;;
72573;SDS011;60603;52.548;13.420;2023-06-22T02:39:20;22.38;;;13.55;;
72573;SDS011;60603;52.548;13.420;2023-06-22T02:41:51;20.88;;;13.35;;
72573;SDS011;60603;52.548;13.420;2023-06-22T02:46:43;23.55;;;14.20;;
72573;SDS011;60603;52.548;13.420;2023-06-22T02:49:09;25.42;;;14.40;;
72573;SDS011;60603;52.548;13.420;2023-06-22T02:51:35;21.23;;;14.02;;
72573;SDS011;60603;52.548;13.420;2023-06-22T02:54:05;22.75;;;14.35;;
72573;SDS011;60603;52.548;13.420;2023-06-22T02:56:31;20.70;;;14.25;;
72573;SDS011;60603;52.548;13.420;2023-06-22T02:58:56;20.55;;;13.88;;
72573;SDS011;60603;52.548;13.420;2023-06-22T03:01:28;18.63;;;13.45;;
72573;SDS011;60603;52.548;13.420;2023-06-22T03:03:56;22.80;;;14.65;;
72573;SDS011;60603;52.548;13.420;2023-06-22T03:06:22;19.00;;;13.55;;
72573;SDS011;60603;52.548;13.420;2023-06-22T03:08:48;23.25;;;14.77;;
72573;SDS011;60603;52.548;13.420;2023-06-22T03:11:15;20.08;;;13.18;;
72573;SDS011;60603;52.548;13.420;2023-06-22T03:13:41;22.40;;;14.43;;
72573;SDS011;60603;52.548;13.420;2023-06-22T03:16:06;20.73;;;14.02;;
72573;SDS011;60603;52.548;13.420;2023-06-22T03:18:32;23.00;;;14.02;;
72573;SDS011;60603;52.548;13.420;2023-06-22T03:20:58;22.95;;;14.48;;
72573;SDS011;60603;52.548;13.420;2023-06-22T03:23:23;21.55;;;14.52;;
72573;SDS011;60603;52.548;13.420;2023-06-22T03:25:49;23.05;;;14.77;;
72573;SDS011;60603;52.548;13.420;2023-06-22T03:28:15;22.52;;;15.05;;
72573;SDS011;60603;52.548;13.420;2023-06-22T03:30:41;22.58;;;14.38;;
72573;SDS011;60603;52.548;13.420;2023-06-22T03:33:06;21.13;;;14.25;;
72573;SDS011;60603;52.548;13.420;2023-06-22T03:35:32;22.77;;;13.73;;
72573;SDS011;60603;52.548;13.420;2023-06-22T03:37:58;20.98;;;12.85;;
72573;SDS011;60603;52.548;13.420;2023-06-22T03:40:23;21.67;;;13.05;;
72573;SDS011;60603;52.548;13.420;2023-06-22T03:42:49;19.65;;;12.10;;
72573;SDS011;60603;52.548;13.420;2023-06-22T03:45:15;18.83;;;11.98;;
72573;SDS011;60603;52.548;13.420;2023-06-22T03:47:41;16.33;;;10.93;;
72573;SDS011;60603;52.548;13.420;2023-06-22T03:50:07;15.52;;;10.65;;
72573;SDS011;60603;52.548;13.420;2023-06-22T03:52:32;17.38;;;11.18;;
72573;SDS011;60603;52.548;13.420;2023-06-22T03:54:58;17.35;;;11.63;;
72573;SDS011;60603;52.548;13.420;2023-06-22T03:57:24;15.10;;;11.02;;
72573;SDS011;60603;52.548;13.420;2023-06-22T03:59:50;16.40;;;10.80;;
72573;SDS011;60603;52.548;13.420;2023-06-22T04:02:15;14.32;;;9.85;;
72573;SDS011;60603;52.548;13.420;2023-06-22T04:04:41;15.27;;;10.80;;
72573;SDS011;60603;52.548;13.420;2023-06-22T04:07:06;14.20;;;9.90;;
72573;SDS011;60603;52.548;13.420;2023-06-22T04:09:33;14.90;;;9.88;;
72573;SDS011;60603;52.548;13.420;2023-06-22T04:11:58;14.73;;;9.43;;
72573;SDS011;60603;52.548;13.420;2023-06-22T04:14:24;14.27;;;9.32;;
72573;SDS011;60603;52.548;13.420;2023-06-22T04:16:50;14.13;;;8.82;;
72573;SDS011;60603;52.548;13.420;2023-06-22T04:19:15;12.90;;;9.13;;
72573;SDS011;60603;52.548;13.420;2023-06-22T04:21:43;13.38;;;8.02;;
72573;SDS011;60603;52.548;13.420;2023-06-22T04:24:10;12.63;;;8.10;;
72573;SDS011;60603;52.548;13.420;2023-06-22T04:26:36;12.68;;;8.30;;
72573;SDS011;60603;52.548;13.420;2023-06-22T04:29:03;12.70;;;8.05;;
72573;SDS011;60603;52.548;13.420;2023-06-22T04:31:33;12.02;;;7.95;;
72573;SDS011;60603;52.548;13.420;2023-06-22T04:34:02;10.98;;;7.55;;
72573;SDS011;60603;52.548;13.420;2023-06-22T04:39:04;10.73;;;7.03;;
72573;SDS011;60603;52.548;13.420;2023-06-22T04:41:31;11.98;;;6.60;;
72573;SDS011;60603;52.548;13.420;2023-06-22T04:44:07;11.48;;;6.95;;
72573;SDS011;60603;52.548;13.420;2023-06-22T04:46:37;8.70;;;6.43;;
72573;SDS011;60603;52.548;13.420;2023-06-22T04:49:09;10.30;;;6.75;;
72573;SDS011;60603;52.548;13.420;2023-06-22T04:51:41;9.07;;;5.82;;
72573;SDS011;60603;52.548;13.420;2023-06-22T04:54:07;9.60;;;5.70;;
72573;SDS011;60603;52.548;13.420;2023-06-22T04:56:34;10.45;;;6.25;;
72573;SDS011;60603;52.548;13.420;2023-06-22T04:59:00;10.23;;;5.80;;
72573;SDS011;60603;52.548;13.420;2023-06-22T05:01:26;9.35;;;5.80;;
72573;SDS011;60603;52.548;13.420;2023-06-22T05:03:52;8.65;;;5.20;;
72573;SDS011;60603;52.548;13.420;2023-06-22T05:06:21;9.10;;;5.35;;
72573;SDS011;60603;52.548;13.420;2023-06-22T05:08:53;8.30;;;4.65;;
72573;SDS011;60603;52.548;13.420;2023-06-22T05:11:25;8.43;;;4.60;;
72573;SDS011;60603;52.548;13.420;2023-06-22T05:13:54;10.90;;;5.00;;
72573;SDS011;60603;52.548;13.420;2023-06-22T05:16:20;9.75;;;4.28;;
72573;SDS011;60603;52.548;13.420;2023-06-22T05:18:53;8.00;;;4.10;;
72573;SDS011;60603;52.548;13.420;2023-06-22T05:21:23;9.60;;;4.40;;
72573;SDS011;60603;52.548;13.420;2023-06-22T05:23:51;8.70;;;4.30;;
72573;SDS011;60603;52.548;13.420;2023-06-22T05:26:21;8.10;;;4.60;;
72573;SDS011;60603;52.548;13.420;2023-06-22T05:28:47;7.63;;;3.53;;
72573;SDS011;60603;52.548;13.420;2023-06-22T05:31:16;9.90;;;3.63;;
72573;SDS011;60603;52.548;13.420;2023-06-22T05:33:43;6.70;;;3.88;;
72573;SDS011;60603;52.548;13.420;2023-06-22T05:36:09;7.57;;;3.85;;
72573;SDS011;60603;52.548;13.420;2023-06-22T05:38:36;7.60;;;3.55;;
72573;SDS011;60603;52.548;13.420;2023-06-22T05:41:02;5.20;;;3.10;;
72573;SDS011;60603;52.548;13.420;2023-06-22T05:43:28;6.80;;;3.25;;
72573;SDS011;60603;52.548;13.420;2023-06-22T05:45:53;7.97;;;3.65;;
72573;SDS011;60603;52.548;13.420;2023-06-22T05:48:19;6.60;;;3.30;;
72573;SDS011;60603;52.548;13.420;2023-06-22T05:50:45;8.38;;;3.38;;
72573;SDS011;60603;52.548;13.420;2023-06-22T05:53:10;8.82;;;3.30;;
72573;SDS011;60603;52.548;13.420;2023-06-22T05:55:36;6.97;;;3.17;;
72573;SDS011;60603;52.548;13.420;2023-06-22T05:58:02;12.95;;;4.07;;
72573;SDS011;60603;52.548;13.420;2023-06-22T06:00:30;9.35;;;3.92;;
72573;SDS011;60603;52.548;13.420;2023-06-22T06:02:56;10.07;;;3.92;;
72573;SDS011;60603;52.548;13.420;2023-06-22T06:05:22;6.35;;;4.10;;
72573;SDS011;60603;52.548;13.420;2023-06-22T06:07:49;8.45;;;4.18;;
72573;SDS011;60603;52.548;13.420;2023-06-22T06:10:15;7.55;;;3.78;;
72573;SDS011;60603;52.548;13.420;2023-06-22T06:12:41;6.90;;;3.97;;
72573;SDS011;60603;52.548;13.420;2023-06-22T06:15:06;7.80;;;4.03;;
72573;SDS011;60603;52.548;13.420;2023-06-22T06:17:32;9.48;;;4.40;;
72573;SDS011;60603;52.548;13.420;2023-06-22T06:19:59;6.30;;;3.72;;
72573;SDS011;60603;52.548;13.420;2023-06-22T06:22:25;8.70;;;4.40;;
72573;SDS011;60603;52.548;13.420;2023-06-22T06:24:51;8.07;;;4.10;;
72573;SDS011;60603;52.548;13.420;2023-06-22T06:27:17;8.48;;;4.07;;
72573;SDS011;60603;52.548;13.420;2023-06-22T06:29:46;6.88;;;3.47;;
72573;SDS011;60603;52.548;13.420;2023-06-22T06:32:14;6.22;;;3.15;;
72573;SDS011;60603;52.548;13.420;2023-06-22T06:34:39;5.82;;;3.08;;
72573;SDS011;60603;52.548;13.420;2023-06-22T06:37:06;7.35;;;3.25;;
72573;SDS011;60603;52.548;13.420;2023-06-22T06:39:33;7.00;;;3.33;;
72573;SDS011;60603;52.548;13.420;2023-06-22T06:41:59;7.35;;;3.08;;
72573;SDS011;60603;52.548;13.420;2023-06-22T06:44:25;7.35;;;3.38;;
72573;SDS011;60603;52.548;13.420;2023-06-22T06:46:51;6.88;;;2.95;;
72573;SDS011;60603;52.548;13.420;2023-06-22T06:49:16;6.57;;;3.00;;
72573;SDS011;60603;52.548;13.420;2023-06-22T06:51:42;7.05;;;3.00;;
72573;SDS011;60603;52.548;13.420;2023-06-22T06:54:07;6.45;;;3.15;;
72573;SDS011;60603;52.548;13.420;2023-06-22T06:56:33;7.35;;;3.05;;
72573;SDS011;60603;52.548;13.420;2023-06-22T06:58:59;6.10;;;3.13;;
72573;SDS011;60603;52.548;13.420;2023-06-22T07:01:25;5.63;;;2.70;;
72573;SDS011;60603;52.548;13.420;2023-06-22T07:03:50;4.35;;;2.60;;
72573;SDS011;60603;52.548;13.420;2023-06-22T07:06:16;5.53;;;2.83;;
72573;SDS011;60603;52.548;13.420;2023-06-22T07:08:42;7.47;;;2.88;;
72573;SDS011;60603;52.548;13.420;2023-06-22T07:11:08;6.03;;;2.97;;
72573;SDS011;60603;52.548;13.420;2023-06-22T07:13:33;5.82;;;3.08;;
72573;SDS011;60603;52.548;13.420;2023-06-22T07:16:00;6.15;;;2.90;;
72573;SDS011;60603;52.548;13.420;2023-06-22T07:18:25;5.47;;;2.70;;
72573;SDS011;60603;52.548;13.420;2023-06-22T07:20:52;7.70;;;3.33;;
72573;SDS011;60603;52.548;13.420;2023-06-22T07:23:18;5.90;;;3.05;;
72573;SDS011;60603;52.548;13.420;2023-06-22T07:25:43;6.07;;;3.10;;
72573;SDS011;60603;52.548;13.420;2023-06-22T07:28:09;5.45;;;3.15;;
72573;SDS011;60603;52.548;13.420;2023-06-22T07:30:35;6.97;;;2.88;;
72573;SDS011;60603;52.548;13.420;2023-06-22T07:33:01;6.38;;;2.80;;
72573;SDS011;60603;52.548;13.420;2023-06-22T07:35:33;4.60;;;2.58;;
72573;SDS011;60603;52.548;13.420;2023-06-22T07:37:59;6.53;;;3.00;;
72573;SDS011;60603;52.548;13.420;2023-06-22T07:40:25;7.57;;;2.75;;
72573;SDS011;60603;52.548;13.420;2023-06-22T07:42:51;5.80;;;2.70;;
72573;SDS011;60603;52.548;13.420;2023-06-22T07:45:18;6.55;;;2.70;;
72573;SDS011;60603;52.548;13.420;2023-06-22T07:47:44;4.20;;;2.50;;
72573;SDS011;60603;52.548;13.420;2023-06-22T07:50:10;5.07;;;2.22;;
72573;SDS011;60603;52.548;13.420;2023-06-22T07:52:35;5.93;;;2.50;;
72573;SDS011;60603;52.548;13.420;2023-06-22T07:55:02;5.38;;;2.25;;
72573;SDS011;60603;52.548;13.420;2023-06-22T07:57:27;3.58;;;1.90;;
72573;SDS011;60603;52.548;13.420;2023-06-22T08:00:03;4.90;;;2.10;;
72573;SDS011;60603;52.548;13.420;2023-06-22T08:02:37;5.85;;;2.78;;
72573;SDS011;60603;52.548;13.420;2023-06-22T08:05:03;6.13;;;2.20;;
72573;SDS011;60603;52.548;13.420;2023-06-22T08:07:29;4.93;;;2.17;;
72573;SDS011;60603;52.548;13.420;2023-06-22T08:09:58;5.07;;;2.60;;
72573;SDS011;60603;52.548;13.420;2023-06-22T08:12:23;7.72;;;2.58;;
72573;SDS011;60603;52.548;13.420;2023-06-22T08:14:49;4.38;;;2.35;;
72573;SDS011;60603;52.548;13.420;2023-06-22T08:17:15;5.20;;;2.60;;
72573;SDS011;60603;52.548;13.420;2023-06-22T08:19:41;5.00;;;2.20;;
72573;SDS011;60603;52.548;13.420;2023-06-22T08:22:07;5.03;;;2.38;;
72573;SDS011;60603;52.548;13.420;2023-06-22T08:24:33;6.40;;;2.50;;
72573;SDS011;60603;52.548;13.420;2023-06-22T08:26:59;5.53;;;2.72;;
72573;SDS011;60603;52.548;13.420;2023-06-22T08:29:24;7.68;;;2.58;;
72573;SDS011;60603;52.548;13.420;2023-06-22T08:31:53;3.83;;;2.10;;
72573;SDS011;60603;52.548;13.420;2023-06-22T08:34:19;5.35;;;2.60;;
72573;SDS011;60603;52.548;13.420;2023-06-22T08:36:47;6.03;;;2.10;;
72573;SDS011;60603;52.548;13.420;2023-06-22T08:39:17;6.18;;;2.38;;
72573;SDS011;60603;52.548;13.420;2023-06-22T08:41:44;4.78;;;2.40;;
72573;SDS011;60603;52.548;13.420;2023-06-22T08:44:10;7.32;;;2.75;;
72573;SDS011;60603;52.548;13.420;2023-06-22T08:46:36;5.65;;;2.20;;
72573;SDS011;60603;52.548;13.420;2023-06-22T08:49:04;3.83;;;2.33;;
72573;SDS011;60603;52.548;13.420;2023-06-22T08:51:32;6.32;;;2.65;;
72573;SDS011;60603;52.548;13.420;2023-06-22T08:53:58;6.25;;;2.70;;
72573;SDS011;60603;52.548;13.420;2023-06-22T08:56:24;6.05;;;2.70;;
72573;SDS011;60603;52.548;13.420;2023-06-22T08:58:49;5.22;;;2.60;;
72573;SDS011;60603;52.548;13.420;2023-06-22T09:01:15;4.45;;;2.85;;
72573;SDS011;60603;52.548;13.420;2023-06-22T09:03:41;5.20;;;2.60;;
72573;SDS011;60603;52.548;13.420;2023-06-22T09:06:07;6.30;;;3.00;;
72573;SDS011;60603;52.548;13.420;2023-06-22T09:08:35;6.90;;;3.10;;
72573;SDS011;60603;52.548;13.420;2023-06-22T09:11:01;5.68;;;2.95;;
72573;SDS011;60603;52.548;13.420;2023-06-22T09:13:30;5.30;;;3.00;;
72573;SDS011;60603;52.548;13.420;2023-06-22T09:15:56;5.00;;;2.45;;
72573;SDS011;60603;52.548;13.420;2023-06-22T09:18:22;6.32;;;3.28;;
72573;SDS011;60603;52.548;13.420;2023-06-22T09:20:48;4.85;;;2.80;;
72573;SDS011;60603;52.548;13.420;2023-06-22T09:23:17;4.82;;;2.90;;
72573;SDS011;60603;52.548;13.420;2023-06-22T09:25:43;7.30;;;3.53;;
72573;SDS011;60603;52.548;13.420;2023-06-22T09:28:09;9.18;;;3.17;;
72573;SDS011;60603;52.548;13.420;2023-06-22T09:30:35;4.22;;;2.80;;
72573;SDS011;60603;52.548;13.420;2023-06-22T09:33:00;5.25;;;2.50;;
72573;SDS011;60603;52.548;13.420;2023-06-22T09:35:26;6.35;;;3.10;;
72573;SDS011;60603;52.548;13.420;2023-06-22T09:37:52;5.53;;;2.90;;
72573;SDS011;60603;52.548;13.420;2023-06-22T09:40:18;5.78;;;3.13;;
72573;SDS011;60603;52.548;13.420;2023-06-22T09:42:43;7.50;;;2.90;;
72573;SDS011;60603;52.548;13.420;2023-06-22T09:45:09;7.70;;;3.00;;
72573;SDS011;60603;52.548;13.420;2023-06-22T09:47:35;5.38;;;2.67;;
72573;SDS011;60603;52.548;13.420;2023-06-22T09:50:01;7.22;;;2.83;;
72573;SDS011;60603;52.548;13.420;2023-06-22T09:52:27;5.55;;;2.40;;
72573;SDS011;60603;52.548;13.420;2023-06-22T09:54:53;4.47;;;2.65;;
72573;SDS011;60603;52.548;13.420;2023-06-22T09:57:19;7.20;;;2.58;;
72573;SDS011;60603;52.548;13.420;2023-06-22T09:59:45;5.65;;;2.70;;
72573;SDS011;60603;52.548;13.420;2023-06-22T10:02:10;7.32;;;2.35;;
72573;SDS011;60603;52.548;13.420;2023-06-22T10:04:36;6.13;;;2.75;;
72573;SDS011;60603;52.548;13.420;2023-06-22T10:07:02;4.60;;;2.47;;
72573;SDS011;60603;52.548;13.420;2023-06-22T10:09:28;6.13;;;2.85;;
72573;SDS011;60603;52.548;13.420;2023-06-22T10:11:54;6.35;;;3.10;;
72573;SDS011;60603;52.548;13.420;2023-06-22T10:14:20;5.88;;;2.90;;
72573;SDS011;60603;52.548;13.420;2023-06-22T10:16:45;7.72;;;3.30;;
72573;SDS011;60603;52.548;13.420;2023-06-22T10:19:11;6.72;;;3.08;;
72573;SDS011;60603;52.548;13.420;2023-06-22T10:21:37;4.25;;;2.70;;
72573;SDS011;60603;52.548;13.420;2023-06-22T10:24:03;5.80;;;3.00;;
72573;SDS011;60603;52.548;13.420;2023-06-22T10:26:34;6.15;;;2.90;;
72573;SDS011;60603;52.548;13.420;2023-06-22T10:29:02;4.43;;;2.63;;
72573;SDS011;60603;52.548;13.420;2023-06-22T10:31:28;5.78;;;3.00;;
72573;SDS011;60603;52.548;13.420;2023-06-22T10:33:54;5.50;;;2.63;;
72573;SDS011;60603;52.548;13.420;2023-06-22T10:36:23;5.82;;;2.92;;
72573;SDS011;60603;52.548;13.420;2023-06-22T10:38:49;6.43;;;3.15;;
72573;SDS011;60603;52.548;13.420;2023-06-22T10:41:15;7.10;;;3.15;;
72573;SDS011;60603;52.548;13.420;2023-06-22T10:43:41;6.70;;;3.35;;
72573;SDS011;60603;52.548;13.420;2023-06-22T10:46:07;5.80;;;2.53;;
72573;SDS011;60603;52.548;13.420;2023-06-22T10:48:33;6.30;;;3.00;;
72573;SDS011;60603;52.548;13.420;2023-06-22T10:50:59;6.43;;;3.35;;
72573;SDS011;60603;52.548;13.420;2023-06-22T10:53:25;5.88;;;2.95;;
72573;SDS011;60603;52.548;13.420;2023-06-22T10:55:50;5.32;;;3.25;;
72573;SDS011;60603;52.548;13.420;2023-06-22T10:58:18;5.38;;;3.47;;
72573;SDS011;60603;52.548;13.420;2023-06-22T11:00:44;6.40;;;3.15;;
72573;SDS011;60603;52.548;13.420;2023-06-22T11:03:11;7.07;;;3.42;;
72573;SDS011;60603;52.548;13.420;2023-06-22T11:05:37;5.57;;;3.30;;
72573;SDS011;60603;52.548;13.420;2023-06-22T11:08:03;7.13;;;3.20;;
72573;SDS011;60603;52.548;13.420;2023-06-22T11:10:29;6.93;;;3.22;;
72573;SDS011;60603;52.548;13.420;2023-06-22T11:12:55;6.55;;;3.35;;
72573;SDS011;60603;52.548;13.420;2023-06-22T11:15:23;5.50;;;2.90;;
72573;SDS011;60603;52.548;13.420;2023-06-22T11:17:50;5.85;;;3.03;;
72573;SDS011;60603;52.548;13.420;2023-06-22T11:20:15;5.85;;;3.10;;
72573;SDS011;60603;52.548;13.420;2023-06-22T11:22:41;5.90;;;3.35;;
72573;SDS011;60603;52.548;13.420;2023-06-22T11:25:07;7.20;;;3.55;;
72573;SDS011;60603;52.548;13.420;2023-06-22T11:27:34;7.05;;;3.70;;
72573;SDS011;60603;52.548;13.420;2023-06-22T11:30:00;6.03;;;3.38;;
72573;SDS011;60603;52.548;13.420;2023-06-22T11:32:25;6.10;;;3.38;;
72573;SDS011;60603;52.548;13.420;2023-06-22T11:34:51;4.97;;;3.10;;
72573;SDS011;60603;52.548;13.420;2023-06-22T11:37:17;6.13;;;2.72;;
72573;SDS011;60603;52.548;13.420;2023-06-22T11:39:43;10.35;;;3.80;;
72573;SDS011;60603;52.548;13.420;2023-06-22T11:42:09;6.80;;;3.20;;
72573;SDS011;60603;52.548;13.420;2023-06-22T11:44:35;8.25;;;3.28;;
72573;SDS011;60603;52.548;13.420;2023-06-22T11:47:01;8.95;;;3.80;;
72573;SDS011;60603;52.548;13.420;2023-06-22T11:49:29;7.72;;;3.22;;
72573;SDS011;60603;52.548;13.420;2023-06-22T11:51:56;9.85;;;3.35;;
72573;SDS011;60603;52.548;13.420;2023-06-22T11:54:21;6.22;;;3.33;;
72573;SDS011;60603;52.548;13.420;2023-06-22T11:56:47;6.00;;;3.05;;
72573;SDS011;60603;52.548;13.420;2023-06-22T11:59:13;5.82;;;3.13;;
72573;SDS011;60603;52.548;13.420;2023-06-22T12:01:39;6.35;;;3.35;;
72573;SDS011;60603;52.548;13.420;2023-06-22T12:04:05;6.05;;;3.13;;
72573;SDS011;60603;52.548;13.420;2023-06-22T12:06:31;7.15;;;3.10;;
72573;SDS011;60603;52.548;13.420;2023-06-22T12:08:58;7.82;;;3.30;;
72573;SDS011;60603;52.548;13.420;2023-06-22T12:11:24;5.88;;;3.55;;
72573;SDS011;60603;52.548;13.420;2023-06-22T12:13:50;5.35;;;2.90;;
72573;SDS011;60603;52.548;13.420;2023-06-22T12:16:16;4.80;;;3.00;;
72573;SDS011;60603;52.548;13.420;2023-06-22T12:18:42;6.68;;;3.33;;
72573;SDS011;60603;52.548;13.420;2023-06-22T12:21:07;6.03;;;3.30;;
72573;SDS011;60603;52.548;13.420;2023-06-22T12:23:33;7.43;;;3.42;;
72573;SDS011;60603;52.548;13.420;2023-06-22T12:25:59;5.55;;;3.00;;
72573;SDS011;60603;52.548;13.420;2023-06-22T12:28:26;9.32;;;3.42;;
72573;SDS011;60603;52.548;13.420;2023-06-22T12:30:52;7.20;;;3.45;;
72573;SDS011;60603;52.548;13.420;2023-06-22T12:33:18;6.10;;;3.15;;
72573;SDS011;60603;52.548;13.420;2023-06-22T12:35:44;6.13;;;3.65;;
72573;SDS011;60603;52.548;13.420;2023-06-22T12:38:11;6.07;;;3.38;;
72573;SDS011;60603;52.548;13.420;2023-06-22T12:40:36;5.78;;;3.78;;
72573;SDS011;60603;52.548;13.420;2023-06-22T12:43:02;6.75;;;3.40;;
72573;SDS011;60603;52.548;13.420;2023-06-22T12:45:28;6.20;;;3.22;;
72573;SDS011;60603;52.548;13.420;2023-06-22T12:47:57;6.15;;;3.40;;
72573;SDS011;60603;52.548;13.420;2023-06-22T12:50:23;6.45;;;3.70;;
72573;SDS011;60603;52.548;13.420;2023-06-22T12:52:48;5.28;;;3.50;;
72573;SDS011;60603;52.548;13.420;2023-06-22T12:55:14;5.40;;;3.47;;
72573;SDS011;60603;52.548;13.420;2023-06-22T12:57:40;6.38;;;3.47;;
72573;SDS011;60603;52.548;13.420;2023-06-22T13:00:06;6.38;;;3.63;;
72573;SDS011;60603;52.548;13.420;2023-06-22T13:02:33;5.82;;;3.75;;
72573;SDS011;60603;52.548;13.420;2023-06-22T13:04:59;7.78;;;3.53;;
72573;SDS011;60603;52.548;13.420;2023-06-22T13:07:25;6.45;;;3.85;;
72573;SDS011;60603;52.548;13.420;2023-06-22T13:09:51;5.07;;;3.33;;
72573;SDS011;60603;52.548;13.420;2023-06-22T13:12:17;7.47;;;3.67;;
72573;SDS011;60603;52.548;13.420;2023-06-22T13:14:43;5.18;;;3.47;;
72573;SDS011;60603;52.548;13.420;2023-06-22T13:17:09;5.53;;;3.70;;
72573;SDS011;60603;52.548;13.420;2023-06-22T13:19:35;6.30;;;3.85;;
72573;SDS011;60603;52.548;13.420;2023-06-22T13:22:01;5.35;;;3.42;;
72573;SDS011;60603;52.548;13.420;2023-06-22T13:24:29;5.13;;;3.70;;
72573;SDS011;60603;52.548;13.420;2023-06-22T13:26:54;8.07;;;3.85;;
72573;SDS011;60603;52.548;13.420;2023-06-22T13:29:20;6.18;;;3.88;;
72573;SDS011;60603;52.548;13.420;2023-06-22T13:31:46;6.78;;;3.83;;
72573;SDS011;60603;52.548;13.420;2023-06-22T13:34:12;5.95;;;3.83;;
72573;SDS011;60603;52.548;13.420;2023-06-22T13:36:38;6.20;;;3.75;;
72573;SDS011;60603;52.548;13.420;2023-06-22T13:39:04;7.15;;;4.03;;
72573;SDS011;60603;52.548;13.420;2023-06-22T13:41:29;7.63;;;3.97;;
72573;SDS011;60603;52.548;13.420;2023-06-22T13:43:55;5.75;;;3.75;;
72573;SDS011;60603;52.548;13.420;2023-06-22T13:46:21;6.47;;;4.63;;
72573;SDS011;60603;52.548;13.420;2023-06-22T13:48:47;7.05;;;3.72;;
72573;SDS011;60603;52.548;13.420;2023-06-22T13:51:13;6.25;;;3.50;;
72573;SDS011;60603;52.548;13.420;2023-06-22T13:53:38;6.25;;;4.00;;
72573;SDS011;60603;52.548;13.420;2023-06-22T13:56:04;6.53;;;3.50;;
72573;SDS011;60603;52.548;13.420;2023-06-22T13:58:30;7.55;;;3.45;;
72573;SDS011;60603;52.548;13.420;2023-06-22T14:00:56;6.85;;;4.10;;
72573;SDS011;60603;52.548;13.420;2023-06-22T14:03:21;9.18;;;4.25;;
72573;SDS011;60603;52.548;13.420;2023-06-22T14:05:47;8.07;;;4.25;;
72573;SDS011;60603;52.548;13.420;2023-06-22T14:08:13;7.43;;;4.20;;
72573;SDS011;60603;52.548;13.420;2023-06-22T14:10:40;5.75;;;4.25;;
72573;SDS011;60603;52.548;13.420;2023-06-22T14:13:06;6.18;;;4.03;;
72573;SDS011;60603;52.548;13.420;2023-06-22T14:15:32;6.15;;;4.10;;
72573;SDS011;60603;52.548;13.420;2023-06-22T14:17:58;6.85;;;3.67;;
72573;SDS011;60603;52.548;13.420;2023-06-22T14:20:23;7.25;;;4.10;;
72573;SDS011;60603;52.548;13.420;2023-06-22T14:22:49;6.30;;;4.10;;
72573;SDS011;60603;52.548;13.420;2023-06-22T14:25:15;6.72;;;4.20;;
72573;SDS011;60603;52.548;13.420;2023-06-22T14:27:43;6.07;;;4.18;;
72573;SDS011;60603;52.548;13.420;2023-06-22T14:30:09;6.13;;;3.88;;
72573;SDS011;60603;52.548;13.420;2023-06-22T14:32:36;6.97;;;4.18;;
72573;SDS011;60603;52.548;13.420;2023-06-22T14:35:01;7.85;;;4.43;;
72573;SDS011;60603;52.548;13.420;2023-06-22T14:37:27;7.57;;;3.90;;